createdAt,value
2024-03-10T00:00:31.646Z,17.35
2024-03-10T00:03:33.227Z,9.13
2024-03-10T00:06:35.733Z,8.70
2024-03-10T00:09:37.332Z,8.07
2024-03-10T00:12:39.442Z,8.30
2024-03-10T00:15:41.389Z,11.35
2024-03-10T00:18:43.045Z,8.63
2024-03-10T00:21:44.731Z,8.45
2024-03-10T00:24:46.330Z,8.40
2024-03-10T00:27:49.917Z,8.87
2024-03-10T00:30:51.554Z,9.40
2024-03-10T00:33:53.215Z,8.82
2024-03-10T00:36:54.811Z,9.38
2024-03-10T00:39:58.018Z,6.85
2024-03-10T00:42:59.810Z,7.95
2024-03-10T00:46:01.432Z,8.02
2024-03-10T00:49:03.113Z,8.37
2024-03-10T00:52:08.517Z,7.15
2024-03-10T00:55:12.064Z,6.10
2024-03-10T00:58:13.821Z,6.53
2024-03-10T01:01:17.447Z,7.05
2024-03-10T01:04:20.179Z,7.20
2024-03-10T01:07:22.466Z,6.68
2024-03-10T01:10:24.471Z,6.15
2024-03-10T01:13:29.127Z,7.35
2024-03-10T01:16:33.885Z,6.97
2024-03-10T01:19:36.723Z,6.40
2024-03-10T01:22:39.035Z,6.72
2024-03-10T01:25:41.151Z,6.35
2024-03-10T01:28:43.201Z,7.40
2024-03-10T01:31:45.719Z,7.32
2024-03-10T01:34:47.478Z,5.80
2024-03-10T01:37:50.083Z,5.50
2024-03-10T01:40:52.165Z,6.55
2024-03-10T01:43:55.118Z,5.95
2024-03-10T01:46:57.856Z,5.78
2024-03-10T01:49:59.538Z,4.93
2024-03-10T01:53:01.828Z,5.35
2024-03-10T01:56:05.055Z,5.15
2024-03-10T01:59:14.022Z,4.83
2024-03-10T02:02:16.577Z,5.90
2024-03-10T02:05:18.544Z,5.72
2024-03-10T02:08:20.355Z,6.60
2024-03-10T02:11:23.361Z,5.97
2024-03-10T02:14:26.879Z,5.90
2024-03-10T02:17:29.869Z,5.40
2024-03-10T02:20:33.584Z,4.77
2024-03-10T02:23:42.646Z,5.88
2024-03-10T02:26:47.626Z,6.43
2024-03-10T02:30:13.887Z,5.07
2024-03-10T02:33:37.091Z,5.70
2024-03-10T02:37:00.333Z,4.95
2024-03-10T02:40:21.352Z,4.95
2024-03-10T02:43:42.614Z,6.82
2024-03-10T02:47:04.346Z,5.80
2024-03-10T02:50:07.194Z,5.22
2024-03-10T02:53:11.326Z,7.70
2024-03-10T02:56:14.645Z,5.75
2024-03-10T02:59:16.755Z,5.88
2024-03-10T03:02:20.343Z,5.13
2024-03-10T03:05:22.963Z,5.70
2024-03-10T03:08:26.042Z,5.60
2024-03-10T03:11:28.420Z,4.90
2024-03-10T03:14:30.106Z,6.82
2024-03-10T03:17:32.434Z,4.55
2024-03-10T03:20:36.474Z,5.10
2024-03-10T03:23:38.199Z,4.90
2024-03-10T03:26:40.389Z,4.63
2024-03-10T03:29:42.464Z,5.70
2024-03-10T03:32:44.426Z,4.40
2024-03-10T03:35:46.110Z,7.75
2024-03-10T03:38:48.194Z,4.30
2024-03-10T03:41:49.801Z,5.45
2024-03-10T03:44:52.482Z,4.78
2024-03-10T03:47:54.115Z,4.18
2024-03-10T03:50:55.713Z,3.15
2024-03-10T03:53:58.239Z,4.17
2024-03-10T03:57:00.673Z,3.92
2024-03-10T04:00:06.748Z,4.55
2024-03-10T04:03:11.439Z,4.87
2024-03-10T04:06:15.897Z,4.60
2024-03-10T04:09:18.461Z,3.65
2024-03-10T04:12:20.323Z,3.85
2024-03-10T04:15:23.029Z,3.20
2024-03-10T04:18:24.713Z,3.70
2024-03-10T04:21:26.498Z,3.15
2024-03-10T04:24:28.067Z,4.03
2024-03-10T04:27:32.183Z,2.80
2024-03-10T04:30:35.926Z,3.92
2024-03-10T04:33:37.669Z,4.50
2024-03-10T04:36:40.182Z,3.08
2024-03-10T04:39:42.308Z,4.60
2024-03-10T04:42:44.481Z,3.78
2024-03-10T04:45:46.111Z,3.13
2024-03-10T04:48:49.649Z,4.13
2024-03-10T04:51:51.261Z,3.72
2024-03-10T04:54:53.649Z,4.33
2024-03-10T04:57:56.975Z,3.83
2024-03-10T05:00:59.106Z,4.00
2024-03-10T05:04:01.829Z,3.80
2024-03-10T05:07:05.552Z,4.50
2024-03-10T05:10:07.662Z,5.40
2024-03-10T05:13:11.069Z,5.40
2024-03-10T05:16:13.752Z,4.50
2024-03-10T05:19:15.811Z,6.82
2024-03-10T05:22:18.248Z,4.63
2024-03-10T05:25:20.012Z,5.33
2024-03-10T05:28:21.753Z,6.60
2024-03-10T05:31:31.272Z,6.55
2024-03-10T05:34:34.189Z,5.83
2024-03-10T05:37:36.184Z,6.57
2024-03-10T05:40:37.758Z,5.78
2024-03-10T05:43:39.829Z,7.68
2024-03-10T05:46:43.287Z,6.55
2024-03-10T05:49:46.140Z,6.53
2024-03-10T05:52:48.118Z,7.93
2024-03-10T05:55:49.833Z,6.10
2024-03-10T05:58:52.037Z,6.03
2024-03-10T06:01:55.232Z,11.18
2024-03-10T06:04:56.970Z,6.03
2024-03-10T06:07:59.765Z,5.82
2024-03-10T06:11:02.476Z,5.25
2024-03-10T06:14:05.043Z,6.22
2024-03-10T06:17:09.374Z,5.78
2024-03-10T06:20:31.069Z,6.28
2024-03-10T06:23:53.001Z,5.05
2024-03-10T06:26:55.826Z,6.00
2024-03-10T06:29:57.481Z,6.13
2024-03-10T06:32:59.121Z,6.70
2024-03-10T06:36:00.807Z,5.17
2024-03-10T06:39:02.480Z,7.32
2024-03-10T06:42:05.234Z,6.53
2024-03-10T06:45:07.275Z,5.15
2024-03-10T06:48:09.018Z,6.53
2024-03-10T06:51:11.907Z,6.13
2024-03-10T06:54:14.305Z,5.20
2024-03-10T06:57:15.917Z,6.23
2024-03-10T07:00:21.393Z,6.07
2024-03-10T07:03:24.118Z,6.63
2024-03-10T07:06:28.605Z,5.93
2024-03-10T07:09:30.340Z,6.93
2024-03-10T07:12:32.596Z,5.75
2024-03-10T07:15:34.212Z,6.65
2024-03-10T07:18:38.235Z,6.28
2024-03-10T07:21:39.912Z,5.95
2024-03-10T07:24:41.585Z,5.50
2024-03-10T07:27:44.497Z,5.50
2024-03-10T07:30:46.107Z,5.35
2024-03-10T07:33:47.932Z,6.80
2024-03-10T07:36:50.062Z,6.40
2024-03-10T07:39:51.741Z,6.20
2024-03-10T07:42:54.910Z,5.43
2024-03-10T07:45:57.033Z,4.72
2024-03-10T07:49:02.120Z,8.27
2024-03-10T07:52:06.191Z,6.13
2024-03-10T07:55:08.408Z,5.35
2024-03-10T07:58:10.102Z,5.03
2024-03-10T08:01:13.005Z,5.50
2024-03-10T08:04:14.714Z,6.22
2024-03-10T08:07:17.254Z,6.97
2024-03-10T08:10:20.419Z,6.65
2024-03-10T08:13:22.154Z,6.22
2024-03-10T08:16:24.232Z,5.00
2024-03-10T08:19:27.042Z,7.35
2024-03-10T08:22:29.069Z,5.03
2024-03-10T08:25:31.338Z,6.50
2024-03-10T08:28:32.960Z,5.87
2024-03-10T08:31:35.124Z,5.05
2024-03-10T08:34:37.193Z,4.95
2024-03-10T08:37:40.123Z,5.00
2024-03-10T08:43:45.031Z,5.72
2024-03-10T08:46:47.341Z,7.30
2024-03-10T08:49:48.998Z,5.05
2024-03-10T08:52:52.118Z,4.97
2024-03-10T08:55:54.226Z,5.20
2024-03-10T08:58:55.916Z,4.67
2024-03-10T09:01:57.595Z,4.18
2024-03-10T09:05:00.826Z,5.28
2024-03-10T09:08:04.189Z,4.50
2024-03-10T09:11:07.829Z,4.88
2024-03-10T09:14:09.807Z,4.68
2024-03-10T09:17:14.484Z,4.70
2024-03-10T09:20:22.572Z,5.18
2024-03-10T09:23:24.832Z,5.22
2024-03-10T09:26:27.119Z,4.47
2024-03-10T09:29:28.844Z,5.50
2024-03-10T09:32:31.580Z,4.97
2024-03-10T09:35:36.814Z,4.70
2024-03-10T09:38:41.603Z,5.30
2024-03-10T09:41:44.098Z,5.38
2024-03-10T09:44:46.535Z,5.47
2024-03-10T09:47:51.508Z,5.57
2024-03-10T09:50:55.530Z,5.22
2024-03-10T09:53:59.658Z,5.57
2024-03-10T09:57:01.319Z,5.00
2024-03-10T10:00:13.817Z,5.20
2024-03-10T10:03:16.320Z,4.80
2024-03-10T10:06:20.684Z,4.88
2024-03-10T10:09:27.422Z,5.77
2024-03-10T10:12:29.288Z,6.82
2024-03-10T10:15:34.593Z,5.30
2024-03-10T10:18:47.683Z,5.30
2024-03-10T10:21:56.805Z,5.03
2024-03-10T10:25:04.882Z,6.43
2024-03-10T10:28:13.955Z,5.63
2024-03-10T10:31:16.875Z,5.10
2024-03-10T10:34:21.309Z,5.85
2024-03-10T10:37:24.020Z,4.70
2024-03-10T10:40:26.295Z,5.30
2024-03-10T10:43:28.911Z,6.00
2024-03-10T10:46:31.674Z,5.28
2024-03-10T10:49:33.406Z,5.13
2024-03-10T10:52:35.093Z,4.68
2024-03-10T10:55:41.222Z,5.45
2024-03-10T10:58:50.278Z,5.50
2024-03-10T11:02:14.719Z,6.17
2024-03-10T11:05:20.034Z,6.07
2024-03-10T11:08:22.922Z,8.35
2024-03-10T11:11:50.072Z,6.03
2024-03-10T11:14:53.914Z,6.15
2024-03-10T11:17:56.587Z,5.00
2024-03-10T11:20:59.630Z,5.85
2024-03-10T11:24:01.966Z,6.45
2024-03-10T11:27:14.797Z,5.60
2024-03-10T11:30:42.238Z,10.07
2024-03-10T11:33:44.661Z,6.27
2024-03-10T11:36:47.558Z,5.00
2024-03-10T11:39:51.682Z,5.70
2024-03-10T11:42:56.692Z,5.20
2024-03-10T11:45:58.266Z,5.10
2024-03-10T11:49:02.375Z,4.70
2024-03-10T11:52:07.789Z,5.53
2024-03-10T11:55:15.552Z,5.47
2024-03-10T11:58:18.179Z,5.03
2024-03-10T12:01:20.647Z,6.43
2024-03-10T12:04:23.423Z,5.50
2024-03-10T12:07:26.829Z,5.78
2024-03-10T12:10:33.946Z,5.32
2024-03-10T12:13:41.265Z,4.67
2024-03-10T12:16:49.917Z,5.28
2024-03-10T12:19:52.427Z,5.03
2024-03-10T12:22:59.450Z,5.57
2024-03-10T12:26:12.580Z,6.65
2024-03-10T12:29:14.356Z,5.28
2024-03-10T12:32:16.387Z,5.10
2024-03-10T12:35:20.864Z,5.20
2024-03-10T12:38:22.550Z,4.85
2024-03-10T12:41:25.081Z,4.57
2024-03-10T12:44:29.467Z,4.23
2024-03-10T12:47:32.010Z,4.80
2024-03-10T12:50:34.176Z,4.80
2024-03-10T12:53:37.344Z,6.78
2024-03-10T12:56:40.973Z,4.53
2024-03-10T12:59:43.118Z,5.22
2024-03-10T13:02:46.070Z,4.80
2024-03-10T13:05:47.936Z,6.33
2024-03-10T13:08:50.276Z,4.10
2024-03-10T13:11:52.458Z,5.55
2024-03-10T13:14:54.693Z,5.03
2024-03-10T13:17:56.809Z,5.40
2024-03-10T13:20:59.130Z,4.47
2024-03-10T13:24:00.790Z,4.85
2024-03-10T13:27:02.455Z,4.90
2024-03-10T13:30:07.793Z,5.00
2024-03-10T13:33:09.559Z,4.85
2024-03-10T13:36:17.627Z,5.60
2024-03-10T13:39:21.114Z,5.00
2024-03-10T13:42:24.650Z,5.22
2024-03-10T13:45:35.562Z,4.50
2024-03-10T13:48:42.959Z,4.90
2024-03-10T13:51:48.531Z,4.53
2024-03-10T13:54:53.787Z,4.90
2024-03-10T13:57:56.121Z,5.50
2024-03-10T14:00:57.838Z,6.53
2024-03-10T14:03:59.442Z,5.75
2024-03-10T14:07:01.826Z,5.57
2024-03-10T14:10:04.744Z,4.78
2024-03-10T14:13:08.765Z,5.57
2024-03-10T14:16:11.554Z,5.03
2024-03-10T14:19:14.261Z,5.67
2024-03-10T14:22:16.340Z,7.78
2024-03-10T14:25:19.155Z,4.90
2024-03-10T14:28:22.446Z,5.22
2024-03-10T14:31:25.871Z,4.95
2024-03-10T14:34:27.497Z,5.97
2024-03-10T14:37:29.367Z,5.13
2024-03-10T14:40:34.666Z,5.17
2024-03-10T14:43:36.261Z,4.18
2024-03-10T14:46:38.492Z,5.82
2024-03-10T14:49:40.631Z,4.90
2024-03-10T14:52:43.127Z,7.82
2024-03-10T14:55:44.865Z,5.18
2024-03-10T14:58:49.778Z,6.40
2024-03-10T15:01:51.831Z,4.72
2024-03-10T15:04:54.602Z,5.60
2024-03-10T15:08:00.657Z,5.75
2024-03-10T15:11:02.891Z,5.53
2024-03-10T15:14:06.552Z,4.45
2024-03-10T15:17:09.096Z,4.93
2024-03-10T15:20:12.126Z,6.03
2024-03-10T15:23:17.128Z,6.07
2024-03-10T15:26:19.829Z,5.22
2024-03-10T15:29:23.543Z,5.22
2024-03-10T15:32:25.815Z,5.17
2024-03-10T15:35:27.966Z,7.65
2024-03-10T15:38:30.219Z,5.30
2024-03-10T15:41:33.222Z,5.63
2024-03-10T15:44:36.292Z,5.75
2024-03-10T15:47:40.882Z,5.72
2024-03-10T15:50:44.182Z,6.15
2024-03-10T15:53:46.726Z,4.97
2024-03-10T15:56:49.005Z,7.63
2024-03-10T15:59:52.638Z,6.50
2024-03-10T16:02:55.876Z,5.75
2024-03-10T16:05:59.912Z,5.07
2024-03-10T16:09:01.802Z,6.82
2024-03-10T16:12:05.748Z,12.45
2024-03-10T16:15:13.828Z,8.50
2024-03-10T16:18:16.125Z,9.40
2024-03-10T16:21:37.741Z,9.60
2024-03-10T16:24:45.313Z,8.38
2024-03-10T16:27:51.006Z,12.15
2024-03-10T16:30:53.212Z,8.95
2024-03-10T16:33:55.086Z,8.57
2024-03-10T16:36:57.978Z,19.77
2024-03-10T16:40:00.062Z,15.48
2024-03-10T16:43:02.340Z,14.30
2024-03-10T16:46:04.702Z,11.45
2024-03-10T16:49:07.632Z,10.00
2024-03-10T16:52:10.752Z,11.75
2024-03-10T16:55:13.852Z,11.75
2024-03-10T16:58:15.995Z,12.17
2024-03-10T17:01:18.873Z,12.40
2024-03-10T17:04:21.820Z,10.00
2024-03-10T17:07:23.493Z,10.67
2024-03-10T17:10:25.697Z,18.73
2024-03-10T17:13:28.051Z,13.63
2024-03-10T17:16:29.690Z,7.60
2024-03-10T17:19:32.412Z,10.90
2024-03-10T17:22:38.570Z,24.75
2024-03-10T17:25:40.336Z,12.68
2024-03-10T17:28:42.837Z,8.23
2024-03-10T17:31:44.870Z,10.65
2024-03-10T17:34:46.522Z,7.78
2024-03-10T17:37:49.028Z,7.87
2024-03-10T17:40:52.100Z,7.82
2024-03-10T17:43:54.211Z,6.97
2024-03-10T17:46:56.752Z,7.82
2024-03-10T17:49:59.640Z,7.85
2024-03-10T17:53:01.710Z,6.75
2024-03-10T17:56:03.783Z,8.93
2024-03-10T17:59:07.916Z,7.60
2024-03-10T18:02:10.489Z,10.02
2024-03-10T18:05:15.233Z,8.27
2024-03-10T18:08:17.372Z,9.10
2024-03-10T18:11:20.724Z,8.45
2024-03-10T18:14:22.525Z,7.85
2024-03-10T18:17:24.842Z,9.45
2024-03-10T18:20:27.386Z,8.20
2024-03-10T18:23:30.433Z,8.30
2024-03-10T18:26:33.230Z,10.52
2024-03-10T18:29:35.351Z,10.33
2024-03-10T18:32:37.415Z,9.73
2024-03-10T18:35:41.143Z,10.43
2024-03-10T18:38:45.181Z,11.17
2024-03-10T18:41:47.029Z,9.90
2024-03-10T18:44:49.629Z,10.82
2024-03-10T18:47:51.925Z,9.25
2024-03-10T18:50:58.757Z,10.48
2024-03-10T18:54:08.065Z,9.82
2024-03-10T18:57:11.148Z,10.45
2024-03-10T19:00:13.765Z,10.50
2024-03-10T19:03:16.392Z,9.20
2024-03-10T19:06:18.201Z,10.80
2024-03-10T19:09:22.281Z,9.70
2024-03-10T19:12:24.377Z,10.18
2024-03-10T19:15:27.384Z,9.90
2024-03-10T19:18:29.134Z,9.82
2024-03-10T19:21:34.890Z,9.38
2024-03-10T19:24:37.004Z,9.50
2024-03-10T19:27:38.862Z,8.15
2024-03-10T19:30:40.913Z,8.10
2024-03-10T19:33:42.883Z,8.40
2024-03-10T19:36:44.554Z,9.98
2024-03-10T19:39:46.316Z,8.70
2024-03-10T19:42:50.049Z,11.00
2024-03-10T19:45:52.344Z,8.57
2024-03-10T19:48:54.692Z,12.15
2024-03-10T19:51:56.670Z,9.98
2024-03-10T19:55:01.237Z,9.85
2024-03-10T19:58:07.112Z,8.25
2024-03-10T20:01:09.847Z,7.50
2024-03-10T20:04:12.680Z,8.82
2024-03-10T20:07:14.526Z,7.78
2024-03-10T20:10:19.609Z,8.77
2024-03-10T20:13:21.411Z,7.80
2024-03-10T20:16:23.138Z,7.43
2024-03-10T20:19:24.769Z,6.60
2024-03-10T20:22:27.302Z,8.70
2024-03-10T20:25:31.950Z,7.20
2024-03-10T20:28:34.646Z,6.50
2024-03-10T20:31:36.594Z,7.23
2024-03-10T20:34:38.241Z,6.53
2024-03-10T20:37:44.543Z,6.05
2024-03-10T20:40:46.451Z,6.57
2024-03-10T20:43:48.059Z,6.78
2024-03-10T20:46:50.154Z,7.20
2024-03-10T20:49:53.797Z,6.57
2024-03-10T20:52:55.615Z,7.38
2024-03-10T20:55:59.077Z,6.88
2024-03-10T20:59:00.940Z,8.07
2024-03-10T21:02:03.350Z,7.50
2024-03-10T21:05:05.307Z,8.10
2024-03-10T21:08:14.165Z,8.35
2024-03-10T21:11:16.518Z,8.73
2024-03-10T21:14:18.747Z,8.10
2024-03-10T21:17:21.989Z,8.35
2024-03-10T21:20:26.155Z,8.90
2024-03-10T21:23:28.363Z,8.00
2024-03-10T21:26:30.206Z,8.15
2024-03-10T21:29:32.798Z,8.52
2024-03-10T21:32:34.946Z,8.07
2024-03-10T21:35:39.723Z,8.32
2024-03-10T21:38:42.259Z,8.45
2024-03-10T21:41:44.094Z,8.53
2024-03-10T21:44:45.893Z,8.23
2024-03-10T21:47:48.910Z,8.60
2024-03-10T21:50:51.180Z,6.90
2024-03-10T21:53:53.389Z,9.25
2024-03-10T21:56:55.875Z,7.57
2024-03-10T21:59:57.756Z,6.45
2024-03-10T22:02:59.858Z,6.80
2024-03-10T22:06:01.943Z,7.32
2024-03-10T22:09:05.865Z,9.40
2024-03-10T22:12:08.964Z,8.23
2024-03-10T22:15:18.640Z,8.65
2024-03-10T22:18:20.512Z,9.43
2024-03-10T22:21:22.294Z,6.90
2024-03-10T22:24:24.466Z,6.97
2024-03-10T22:27:26.109Z,6.57
2024-03-10T22:30:31.185Z,5.72
2024-03-10T22:33:33.920Z,6.10
2024-03-10T22:36:35.548Z,5.47
2024-03-10T22:39:37.186Z,5.95
2024-03-10T22:42:40.958Z,4.13
2024-03-10T22:45:43.200Z,5.40
2024-03-10T22:48:44.841Z,4.95
2024-03-10T22:51:46.571Z,5.20
2024-03-10T22:54:48.586Z,4.90
2024-03-10T22:57:51.425Z,4.45
2024-03-10T23:00:57.016Z,4.30
2024-03-10T23:03:58.650Z,4.07
2024-03-10T23:07:02.158Z,3.30
2024-03-10T23:10:05.385Z,3.42
2024-03-10T23:13:09.506Z,3.77
2024-03-10T23:16:11.921Z,3.13
2024-03-10T23:19:13.858Z,3.15
2024-03-10T23:22:15.423Z,2.80
2024-03-10T23:25:17.349Z,2.95
2024-03-10T23:28:19.421Z,3.75
2024-03-10T23:31:21.303Z,2.55
2024-03-10T23:34:23.209Z,1.57
2024-03-10T23:37:24.816Z,1.95
2024-03-10T23:40:26.517Z,1.50
2024-03-10T23:43:28.119Z,1.83
2024-03-10T23:46:30.317Z,1.65
2024-03-10T23:49:35.298Z,1.10
2024-03-10T23:52:38.008Z,1.42
2024-03-10T23:55:45.060Z,1.48
2024-03-10T23:58:54.557Z,3.90
